createdAt,value
2022-07-27T00:01:14.055Z,92.70
2022-07-27T00:03:44.234Z,92.70
2022-07-27T00:06:12.371Z,92.80
2022-07-27T00:08:40.388Z,92.80
2022-07-27T00:11:09.623Z,92.70
2022-07-27T00:13:37.943Z,92.80
2022-07-27T00:16:06.586Z,92.90
2022-07-27T00:18:34.680Z,92.80
2022-07-27T00:21:04.124Z,92.70
2022-07-27T00:23:32.361Z,92.80
2022-07-27T00:26:00.326Z,92.90
2022-07-27T00:28:28.341Z,92.90
2022-07-27T00:30:56.350Z,93.00
2022-07-27T00:33:24.371Z,92.90
2022-07-27T00:35:52.383Z,93.00
2022-07-27T00:38:21.789Z,93.00
2022-07-27T00:40:49.754Z,92.80
2022-07-27T00:43:17.723Z,92.90
2022-07-27T00:45:45.660Z,93.10
2022-07-27T00:48:13.638Z,93.00
2022-07-27T00:50:44.088Z,93.00
2022-07-27T00:53:14.243Z,93.10
2022-07-27T00:55:43.878Z,93.00
2022-07-27T00:58:11.909Z,93.30
2022-07-27T01:00:40.202Z,93.40
2022-07-27T01:03:09.209Z,93.30
2022-07-27T01:05:42.507Z,93.30
2022-07-27T01:08:13.631Z,93.40
2022-07-27T01:10:44.019Z,93.30
2022-07-27T01:13:13.557Z,93.40
2022-07-27T01:15:42.732Z,93.40
2022-07-27T01:18:13.364Z,93.50
2022-07-27T01:20:42.110Z,93.50
2022-07-27T01:23:12.107Z,93.50
2022-07-27T01:25:43.246Z,93.40
2022-07-27T01:28:11.366Z,93.60
2022-07-27T01:30:39.410Z,93.60
2022-07-27T01:33:09.524Z,93.90
2022-07-27T01:35:39.033Z,93.40
2022-07-27T01:38:08.200Z,93.50
2022-07-27T01:40:39.641Z,93.60
2022-07-27T01:43:07.770Z,93.50
2022-07-27T01:45:35.809Z,93.50
2022-07-27T01:48:03.780Z,93.50
2022-07-27T01:50:32.033Z,93.60
2022-07-27T01:53:00.025Z,93.40
2022-07-27T01:55:35.692Z,93.90
2022-07-27T01:58:09.086Z,93.40
2022-07-27T02:00:37.884Z,93.50
2022-07-27T02:03:07.001Z,93.40
2022-07-27T02:05:35.315Z,93.60
2022-07-27T02:08:03.968Z,93.60
2022-07-27T02:10:32.259Z,93.70
2022-07-27T02:12:59.349Z,93.50
2022-07-27T02:15:42.233Z,93.50
2022-07-27T02:18:33.169Z,93.30
2022-07-27T02:21:00.510Z,93.40
2022-07-27T02:23:28.514Z,93.50
2022-07-27T02:25:56.554Z,93.40
2022-07-27T02:28:24.712Z,93.50
2022-07-27T02:30:54.003Z,93.60
2022-07-27T02:33:21.980Z,93.50
2022-07-27T02:35:52.021Z,93.30
2022-07-27T02:38:20.238Z,93.40
2022-07-27T02:40:48.280Z,93.40
2022-07-27T02:43:16.270Z,93.40
2022-07-27T02:45:44.236Z,93.50
2022-07-27T02:48:15.935Z,93.40
2022-07-27T02:50:43.890Z,93.50
2022-07-27T02:53:11.954Z,93.40
2022-07-27T02:55:40.094Z,93.30
2022-07-27T02:58:08.153Z,93.30
2022-07-27T03:00:36.155Z,93.20
2022-07-27T03:03:04.220Z,93.30
2022-07-27T03:05:33.581Z,93.20
2022-07-27T03:08:01.699Z,93.10
2022-07-27T03:10:29.679Z,93.30
2022-07-27T03:12:57.965Z,92.70
2022-07-27T03:15:26.366Z,92.80
2022-07-27T03:17:54.358Z,92.40
2022-07-27T03:20:22.436Z,92.70
2022-07-27T03:22:51.773Z,92.50
2022-07-27T03:25:19.754Z,92.50
2022-07-27T03:27:47.732Z,92.30
2022-07-27T03:30:15.801Z,92.40
2022-07-27T03:32:43.746Z,92.60
2022-07-27T03:35:12.957Z,92.90
2022-07-27T03:37:40.994Z,92.30
2022-07-27T03:40:11.399Z,92.80
2022-07-27T03:42:39.841Z,92.50
2022-07-27T03:45:09.532Z,92.50
2022-07-27T03:47:37.631Z,92.60
2022-07-27T03:50:06.517Z,92.60
2022-07-27T03:52:34.621Z,93.00
2022-07-27T03:55:02.898Z,93.20
2022-07-27T03:57:33.079Z,93.20
2022-07-27T04:00:01.121Z,93.10
2022-07-27T04:02:29.205Z,92.90
2022-07-27T04:04:57.307Z,93.40
2022-07-27T04:07:25.356Z,93.50
2022-07-27T04:09:53.361Z,93.20
2022-07-27T04:12:21.354Z,93.20
2022-07-27T04:14:50.759Z,93.10
2022-07-27T04:17:55.673Z,93.00
2022-07-27T04:20:09.113Z,93.70
2022-07-27T04:22:37.112Z,93.30
2022-07-27T04:25:05.543Z,93.80
2022-07-27T04:27:33.874Z,93.40
2022-07-27T04:30:08.259Z,93.10
2022-07-27T04:32:37.487Z,93.00
2022-07-27T04:35:06.261Z,93.90
2022-07-27T04:37:34.918Z,93.70
2022-07-27T04:40:03.430Z,93.50
2022-07-27T04:42:31.434Z,94.30
2022-07-27T04:44:59.781Z,94.30
2022-07-27T04:47:29.199Z,94.50
2022-07-27T04:49:57.256Z,94.40
2022-07-27T04:52:26.539Z,94.70
2022-07-27T04:54:56.857Z,94.80
2022-07-27T04:57:24.874Z,94.80
2022-07-27T04:59:52.828Z,94.60
2022-07-27T05:02:20.815Z,94.80
2022-07-27T05:04:50.181Z,94.90
2022-07-27T05:07:18.127Z,94.80
2022-07-27T05:09:46.611Z,95.00
2022-07-27T05:12:14.619Z,94.90
2022-07-27T05:14:42.695Z,95.10
2022-07-27T05:17:10.721Z,95.10
2022-07-27T05:19:40.308Z,95.00
2022-07-27T05:22:10.741Z,95.00
2022-07-27T05:24:38.742Z,95.50
2022-07-27T05:27:07.026Z,95.10
2022-07-27T05:29:35.144Z,95.30
2022-07-27T05:32:03.171Z,95.60
2022-07-27T05:34:31.389Z,95.10
2022-07-27T05:36:59.386Z,95.30
2022-07-27T05:39:28.725Z,95.50
2022-07-27T05:41:56.723Z,95.70
2022-07-27T05:44:24.688Z,95.40
2022-07-27T05:46:52.708Z,95.60
2022-07-27T05:49:21.500Z,95.40
2022-07-27T05:51:49.950Z,95.60
2022-07-27T05:54:18.445Z,96.10
2022-07-27T05:56:47.875Z,95.90
2022-07-27T05:59:15.978Z,96.00
2022-07-27T06:01:43.981Z,96.20
2022-07-27T06:04:14.438Z,96.30
2022-07-27T06:07:00.752Z,96.30
2022-07-27T06:09:28.698Z,96.30
2022-07-27T06:11:58.082Z,96.20
2022-07-27T06:14:26.165Z,96.40
2022-07-27T06:16:54.639Z,96.50
2022-07-27T06:19:22.870Z,96.30
2022-07-27T06:21:53.741Z,96.50
2022-07-27T06:24:22.113Z,96.60
2022-07-27T06:26:50.140Z,96.40
2022-07-27T06:29:19.514Z,96.70
2022-07-27T06:31:47.622Z,96.60
2022-07-27T06:34:15.872Z,96.70
2022-07-27T06:36:45.369Z,96.70
2022-07-27T06:39:14.081Z,96.70
2022-07-27T06:41:42.309Z,96.80
2022-07-27T06:44:10.332Z,96.90
2022-07-27T06:46:39.788Z,96.90
2022-07-27T06:49:07.844Z,96.80
2022-07-27T06:51:36.031Z,96.80
2022-07-27T06:54:05.495Z,96.90
2022-07-27T06:56:34.092Z,96.90
2022-07-27T06:59:02.154Z,96.70
2022-07-27T07:01:30.127Z,97.00
2022-07-27T07:04:00.062Z,97.20
2022-07-27T07:06:28.192Z,97.00
2022-07-27T07:08:56.191Z,96.90
2022-07-27T07:11:24.181Z,96.60
2022-07-27T07:13:52.147Z,96.40
2022-07-27T07:16:20.264Z,95.90
2022-07-27T07:18:52.195Z,93.20
2022-07-27T07:21:22.108Z,84.00
2022-07-27T07:23:50.216Z,83.20
2022-07-27T07:26:18.281Z,81.50
2022-07-27T07:28:46.316Z,79.40
2022-07-27T07:31:14.537Z,80.70
2022-07-27T07:33:42.678Z,79.50
2022-07-27T07:36:14.171Z,80.40
2022-07-27T07:38:45.269Z,80.60
2022-07-27T07:41:14.188Z,79.90
2022-07-27T07:43:43.004Z,80.30
2022-07-27T07:46:11.048Z,80.10
2022-07-27T07:48:39.844Z,78.90
2022-07-27T07:51:07.968Z,78.80
2022-07-27T07:53:41.116Z,78.50
2022-07-27T07:56:10.977Z,78.30
2022-07-27T07:58:39.082Z,78.20
2022-07-27T08:01:07.179Z,78.20
2022-07-27T08:03:35.352Z,78.50
2022-07-27T08:06:03.382Z,78.40
2022-07-27T08:08:31.550Z,79.30
2022-07-27T08:10:59.637Z,78.30
2022-07-27T08:13:29.136Z,77.10
2022-07-27T08:15:57.268Z,75.80
2022-07-27T08:18:25.287Z,77.30
2022-07-27T08:20:53.651Z,78.80
2022-07-27T08:23:21.750Z,79.80
2022-07-27T08:25:49.723Z,81.10
2022-07-27T08:28:17.845Z,81.60
2022-07-27T08:30:47.731Z,82.20
2022-07-27T08:33:18.164Z,83.00
2022-07-27T08:35:47.326Z,83.50
2022-07-27T08:38:15.448Z,83.50
2022-07-27T08:40:46.279Z,83.60
2022-07-27T08:43:23.715Z,84.70
2022-07-27T08:45:57.671Z,85.30
2022-07-27T08:48:26.571Z,85.60
2022-07-27T08:50:54.646Z,86.40
2022-07-27T08:53:23.460Z,86.70
2022-07-27T08:55:51.557Z,86.90
2022-07-27T08:58:19.664Z,87.50
2022-07-27T09:00:49.748Z,87.80
2022-07-27T09:03:21.521Z,88.30
2022-07-27T09:05:53.530Z,88.40
2022-07-27T09:08:24.394Z,88.80
2022-07-27T09:10:55.183Z,88.90
2022-07-27T09:13:26.619Z,89.30
2022-07-27T09:18:46.257Z,89.60
2022-07-27T09:21:18.970Z,90.00
2022-07-27T09:23:50.278Z,90.00
2022-07-27T09:26:35.825Z,90.30
2022-07-27T09:29:07.114Z,90.20
2022-07-27T09:31:42.891Z,90.40
2022-07-27T09:34:13.681Z,90.40
2022-07-27T09:36:53.427Z,90.50
2022-07-27T09:39:22.583Z,90.50
2022-07-27T09:41:53.052Z,90.80
2022-07-27T09:44:42.024Z,90.80
2022-07-27T09:47:23.033Z,90.90
2022-07-27T09:49:52.484Z,90.80
2022-07-27T09:52:24.663Z,91.10
2022-07-27T09:54:53.073Z,91.20
2022-07-27T09:57:21.201Z,91.20
2022-07-27T09:59:49.238Z,91.30
2022-07-27T10:02:17.369Z,91.30
2022-07-27T10:04:45.747Z,91.30
2022-07-27T10:07:15.362Z,91.50
2022-07-27T10:09:46.852Z,91.60
2022-07-27T10:12:14.849Z,91.60
2022-07-27T10:14:43.987Z,91.70
2022-07-27T10:17:13.655Z,91.70
2022-07-27T10:19:46.729Z,91.70
2022-07-27T10:22:16.269Z,91.60
2022-07-27T10:24:44.490Z,91.40
2022-07-27T10:27:22.975Z,90.80
2022-07-27T10:29:52.162Z,90.60
2022-07-27T10:32:25.922Z,90.20
2022-07-27T10:34:54.194Z,90.00
2022-07-27T10:37:27.843Z,89.70
2022-07-27T10:40:11.224Z,89.30
2022-07-27T10:42:39.621Z,88.70
2022-07-27T10:45:10.045Z,89.10
2022-07-27T10:47:41.557Z,88.80
2022-07-27T10:50:25.482Z,89.00
2022-07-27T10:52:56.303Z,89.40
2022-07-27T10:55:47.929Z,90.10
2022-07-27T10:58:47.677Z,90.40
2022-07-27T11:01:17.523Z,90.60
2022-07-27T11:03:52.426Z,91.10
2022-07-27T11:06:36.278Z,91.10
2022-07-27T11:10:03.239Z,91.40
2022-07-27T11:12:06.067Z,91.70
2022-07-27T11:14:45.659Z,92.00
2022-07-27T11:20:03.321Z,70.40
2022-07-27T11:25:21.792Z,66.30
2022-07-27T11:27:51.369Z,64.80
2022-07-27T11:30:23.810Z,64.10
2022-07-27T11:32:51.988Z,62.10
2022-07-27T11:35:20.532Z,64.30
2022-07-27T11:38:02.851Z,63.20
2022-07-27T11:41:12.648Z,63.80
2022-07-27T11:43:37.441Z,63.20
2022-07-27T11:46:13.967Z,62.80
2022-07-27T11:49:08.726Z,60.40
2022-07-27T11:51:39.085Z,59.80
2022-07-27T11:54:08.794Z,59.70
2022-07-27T11:56:40.510Z,60.10
2022-07-27T11:59:12.632Z,60.60
2022-07-27T12:01:43.136Z,61.60
2022-07-27T12:04:15.233Z,60.60
2022-07-27T12:06:45.411Z,60.70
2022-07-27T12:09:16.071Z,61.40
2022-07-27T12:11:58.053Z,60.10
2022-07-27T12:14:35.341Z,61.30
2022-07-27T12:17:11.985Z,60.80
2022-07-27T12:19:40.824Z,59.90
2022-07-27T12:22:09.724Z,59.50
2022-07-27T12:24:39.521Z,58.90
2022-07-27T12:27:14.319Z,58.00
2022-07-27T12:29:58.340Z,58.40
2022-07-27T12:32:27.573Z,57.90
2022-07-27T12:34:55.859Z,57.90
2022-07-27T12:37:25.057Z,58.00
2022-07-27T12:39:53.114Z,57.90
2022-07-27T12:42:32.593Z,56.90
2022-07-27T12:45:12.903Z,56.40
2022-07-27T12:47:43.797Z,57.00
2022-07-27T12:50:14.587Z,56.10
2022-07-27T12:52:46.328Z,56.00
2022-07-27T12:55:17.679Z,56.10
2022-07-27T12:57:56.777Z,56.10
2022-07-27T13:00:31.131Z,56.20
2022-07-27T13:03:02.016Z,56.00
2022-07-27T13:05:30.167Z,55.00
2022-07-27T13:07:59.025Z,56.40
2022-07-27T13:10:28.707Z,55.50
2022-07-27T13:12:58.992Z,54.80
2022-07-27T13:15:27.399Z,55.60
2022-07-27T13:17:55.900Z,55.20
2022-07-27T13:20:24.167Z,56.10
2022-07-27T13:22:52.676Z,57.40
2022-07-27T13:25:21.663Z,57.80
2022-07-27T13:27:51.070Z,58.10
2022-07-27T13:30:21.059Z,59.20
2022-07-27T13:32:49.218Z,59.90
2022-07-27T13:35:17.873Z,59.70
2022-07-27T13:37:46.425Z,60.70
2022-07-27T13:40:15.919Z,60.50
2022-07-27T13:42:44.040Z,60.80
2022-07-27T13:45:12.554Z,61.50
2022-07-27T13:47:42.848Z,62.60
2022-07-27T13:50:19.239Z,62.30
2022-07-27T13:52:48.238Z,62.70
2022-07-27T13:55:17.385Z,62.40
2022-07-27T13:57:46.543Z,62.70
2022-07-27T14:00:16.292Z,63.30
2022-07-27T14:02:46.199Z,63.80
2022-07-27T14:05:15.789Z,62.40
2022-07-27T14:07:44.536Z,63.80
2022-07-27T14:10:31.196Z,62.70
2022-07-27T14:13:08.056Z,63.70
2022-07-27T14:15:52.957Z,64.20
2022-07-27T14:18:25.763Z,64.20
2022-07-27T14:20:54.591Z,65.10
2022-07-27T14:23:22.760Z,66.30
2022-07-27T14:25:50.919Z,66.40
2022-07-27T14:28:19.232Z,65.10
2022-07-27T14:30:48.699Z,66.20
2022-07-27T14:33:17.531Z,66.10
2022-07-27T14:35:47.443Z,65.60
2022-07-27T14:38:27.864Z,65.80
2022-07-27T14:41:00.656Z,67.70
2022-07-27T14:43:29.425Z,67.50
2022-07-27T14:45:57.501Z,66.20
2022-07-27T14:48:48.500Z,66.40
2022-07-27T14:51:14.981Z,67.70
2022-07-27T14:53:42.974Z,68.20
2022-07-27T14:56:10.973Z,69.30
2022-07-27T14:58:38.961Z,68.40
2022-07-27T15:01:06.986Z,67.50
2022-07-27T15:03:35.177Z,66.40
2022-07-27T15:06:03.523Z,66.50
2022-07-27T15:08:33.053Z,66.90
2022-07-27T15:11:01.056Z,67.10
2022-07-27T15:13:29.030Z,65.80
2022-07-27T15:15:58.019Z,66.20
2022-07-27T15:18:26.132Z,66.20
2022-07-27T15:20:54.107Z,66.00
2022-07-27T15:23:22.299Z,65.30
2022-07-27T15:25:51.634Z,67.10
2022-07-27T15:28:19.809Z,68.70
2022-07-27T15:30:48.680Z,69.10
2022-07-27T15:33:16.679Z,69.60
2022-07-27T15:35:44.684Z,68.50
2022-07-27T15:38:12.696Z,70.60
2022-07-27T15:40:42.209Z,70.90
2022-07-27T15:43:14.658Z,70.20
2022-07-27T15:45:45.439Z,69.20
2022-07-27T15:48:14.363Z,68.10
2022-07-27T15:50:45.057Z,69.80
2022-07-27T15:53:14.720Z,68.90
2022-07-27T15:55:44.317Z,67.70
2022-07-27T15:58:17.971Z,69.30
2022-07-27T16:00:46.882Z,68.50
2022-07-27T16:03:15.169Z,69.40
2022-07-27T16:05:44.719Z,68.30
2022-07-27T16:08:12.748Z,69.40
2022-07-27T16:10:42.155Z,68.70
2022-07-27T16:13:12.701Z,70.10
2022-07-27T16:16:00.351Z,67.90
2022-07-27T16:18:28.919Z,67.40
2022-07-27T16:20:57.092Z,67.50
2022-07-27T16:23:25.616Z,68.90
2022-07-27T16:26:05.090Z,68.30
2022-07-27T16:28:36.107Z,69.30
2022-07-27T16:31:06.368Z,69.10
2022-07-27T16:33:34.686Z,69.00
2022-07-27T16:36:02.898Z,68.60
2022-07-27T16:38:30.869Z,70.40
2022-07-27T16:40:58.894Z,69.70
2022-07-27T16:43:37.361Z,67.90
2022-07-27T16:46:09.980Z,67.70
2022-07-27T16:48:41.701Z,67.80
2022-07-27T16:51:11.298Z,67.20
2022-07-27T16:53:39.797Z,70.30
2022-07-27T16:56:08.860Z,70.10
2022-07-27T16:58:37.523Z,67.80
2022-07-27T17:01:06.094Z,67.40
2022-07-27T17:03:35.487Z,68.30
2022-07-27T17:06:06.368Z,67.50
2022-07-27T17:08:35.615Z,67.30
2022-07-27T17:11:06.148Z,69.00
2022-07-27T17:13:35.369Z,68.10
2022-07-27T17:16:04.479Z,68.70
2022-07-27T17:18:38.952Z,70.50
2022-07-27T17:21:12.365Z,70.90
2022-07-27T17:23:40.939Z,71.10
2022-07-27T17:26:09.916Z,71.00
2022-07-27T17:28:39.480Z,70.40
2022-07-27T17:31:09.538Z,71.10
2022-07-27T17:33:38.521Z,72.20
2022-07-27T17:36:14.733Z,72.90
2022-07-27T17:38:43.774Z,72.30
2022-07-27T17:41:11.933Z,73.60
2022-07-27T17:43:39.921Z,71.60
2022-07-27T17:46:09.367Z,73.30
2022-07-27T17:48:38.026Z,72.80
2022-07-27T17:51:08.876Z,74.00
2022-07-27T17:53:37.092Z,73.30
2022-07-27T17:56:05.529Z,73.50
2022-07-27T17:58:33.540Z,73.70
2022-07-27T18:01:01.568Z,73.30
2022-07-27T18:03:29.604Z,72.80
2022-07-27T18:05:57.871Z,72.10
2022-07-27T18:08:27.296Z,73.60
2022-07-27T18:10:55.365Z,73.40
2022-07-27T18:13:23.404Z,74.40
2022-07-27T18:16:07.972Z,73.60
2022-07-27T18:18:37.051Z,74.20
2022-07-27T18:21:06.333Z,73.70
2022-07-27T18:23:36.346Z,75.50
2022-07-27T18:26:04.702Z,76.10
2022-07-27T18:28:38.996Z,76.60
2022-07-27T18:31:08.439Z,75.40
2022-07-27T18:33:37.123Z,75.70
2022-07-27T18:36:06.299Z,75.80
2022-07-27T18:38:35.842Z,76.20
2022-07-27T18:41:03.916Z,76.50
2022-07-27T18:43:32.142Z,76.40
2022-07-27T18:46:00.275Z,75.70
2022-07-27T18:48:28.786Z,77.20
2022-07-27T18:50:56.955Z,76.20
2022-07-27T18:53:25.032Z,75.70
2022-07-27T18:55:56.664Z,77.50
2022-07-27T18:58:25.523Z,77.20
2022-07-27T19:00:54.441Z,77.60
2022-07-27T19:03:24.569Z,77.60
2022-07-27T19:05:55.325Z,78.60
2022-07-27T19:08:24.004Z,78.00
2022-07-27T19:10:52.383Z,78.10
2022-07-27T19:13:22.032Z,77.60
2022-07-27T19:15:50.012Z,78.50
2022-07-27T19:18:18.014Z,78.50
2022-07-27T19:20:46.016Z,78.70
2022-07-27T19:23:14.100Z,79.00
2022-07-27T19:25:42.454Z,79.20
2022-07-27T19:28:10.384Z,78.90
2022-07-27T19:30:39.898Z,79.60
2022-07-27T19:33:08.005Z,79.00
2022-07-27T19:35:35.959Z,79.20
2022-07-27T19:38:04.178Z,78.80
2022-07-27T19:40:47.470Z,79.20
2022-07-27T19:43:16.193Z,80.10
2022-07-27T19:45:45.672Z,80.20
2022-07-27T19:48:14.019Z,80.20
2022-07-27T19:50:42.824Z,80.00
2022-07-27T19:53:10.989Z,79.60
2022-07-27T19:55:39.120Z,79.40
2022-07-27T19:58:07.155Z,79.60
2022-07-27T20:00:35.248Z,79.80
2022-07-27T20:03:05.097Z,79.80
2022-07-27T20:05:33.112Z,79.20
2022-07-27T20:08:01.264Z,79.50
2022-07-27T20:10:29.344Z,79.90
2022-07-27T20:12:57.384Z,79.90
2022-07-27T20:15:26.279Z,80.60
2022-07-27T20:17:54.340Z,80.80
2022-07-27T20:20:24.005Z,79.70
2022-07-27T20:22:52.645Z,80.30
2022-07-27T20:25:20.665Z,80.40
2022-07-27T20:27:48.990Z,81.70
2022-07-27T20:30:18.493Z,81.20
2022-07-27T20:32:47.431Z,80.80
2022-07-27T20:35:15.515Z,80.70
2022-07-27T20:37:45.859Z,80.80
2022-07-27T20:40:14.206Z,80.60
2022-07-27T20:42:43.182Z,81.30
2022-07-27T20:45:14.440Z,82.00
2022-07-27T20:47:43.107Z,81.30
2022-07-27T20:50:12.887Z,81.00
2022-07-27T20:52:41.507Z,81.10
2022-07-27T20:55:12.021Z,80.90
2022-07-27T20:57:40.294Z,81.90
2022-07-27T21:00:09.710Z,81.50
2022-07-27T21:02:37.832Z,81.20
2022-07-27T21:05:06.944Z,81.30
2022-07-27T21:07:35.016Z,81.30
2022-07-27T21:10:03.125Z,80.90
2022-07-27T21:12:32.620Z,81.50
2022-07-27T21:15:00.796Z,82.00
2022-07-27T21:17:29.087Z,82.00
2022-07-27T21:19:57.214Z,82.60
2022-07-27T21:22:25.236Z,81.70
2022-07-27T21:24:52.262Z,83.30
2022-07-27T21:27:20.967Z,82.50
2022-07-27T21:29:51.359Z,83.60
2022-07-27T21:32:19.694Z,82.90
2022-07-27T21:34:47.939Z,83.50
2022-07-27T21:37:15.971Z,83.30
2022-07-27T21:39:45.662Z,84.00
2022-07-27T21:42:14.048Z,83.50
2022-07-27T21:44:42.020Z,84.30
2022-07-27T21:47:14.222Z,83.80
2022-07-27T21:49:42.870Z,83.50
2022-07-27T21:52:11.374Z,83.50
2022-07-27T21:54:40.422Z,83.80
2022-07-27T21:57:08.445Z,82.20
2022-07-27T21:59:36.454Z,82.20
2022-07-27T22:02:04.961Z,82.60
2022-07-27T22:04:35.405Z,81.80
2022-07-27T22:07:04.832Z,81.70
2022-07-27T22:09:32.847Z,82.30
2022-07-27T22:12:00.894Z,82.00
2022-07-27T22:14:28.905Z,81.60
2022-07-27T22:16:57.018Z,81.90
2022-07-27T22:19:25.048Z,81.00
2022-07-27T22:21:54.426Z,81.00
2022-07-27T22:24:22.475Z,81.70
2022-07-27T22:26:50.592Z,80.20
2022-07-27T22:29:18.584Z,80.90
2022-07-27T22:31:46.685Z,81.30
2022-07-27T22:34:15.237Z,82.40
2022-07-27T22:36:43.405Z,84.50
2022-07-27T22:39:12.887Z,85.50
2022-07-27T22:41:41.445Z,85.60
2022-07-27T22:44:09.534Z,86.40
2022-07-27T22:46:37.520Z,86.20
2022-07-27T22:49:05.571Z,86.80
2022-07-27T22:51:49.743Z,85.00
2022-07-27T22:54:22.681Z,82.20
2022-07-27T22:56:50.738Z,82.00
2022-07-27T22:59:18.693Z,82.60
2022-07-27T23:01:48.148Z,83.10
2022-07-27T23:04:17.718Z,82.50
2022-07-27T23:06:46.573Z,82.40
2022-07-27T23:09:15.722Z,81.70
2022-07-27T23:11:45.823Z,82.00
2022-07-27T23:14:14.319Z,82.90
2022-07-27T23:16:43.072Z,83.50
2022-07-27T23:19:11.815Z,82.40
2022-07-27T23:21:41.867Z,82.50
2022-07-27T23:24:12.407Z,82.60
2022-07-27T23:26:44.108Z,83.00
2022-07-27T23:29:12.113Z,83.00
2022-07-27T23:31:40.148Z,83.00
2022-07-27T23:34:08.399Z,82.20
2022-07-27T23:36:36.457Z,83.20
2022-07-27T23:39:04.618Z,83.20
2022-07-27T23:41:32.831Z,83.00
2022-07-27T23:44:02.223Z,81.90
2022-07-27T23:46:30.275Z,83.80
2022-07-27T23:48:58.367Z,82.70
2022-07-27T23:51:26.398Z,83.00
2022-07-27T23:53:54.455Z,83.40
2022-07-27T23:56:22.415Z,83.20
2022-07-27T23:58:50.474Z,83.70
